createdAt,value
2022-12-24T00:01:18.292Z,97998.25
2022-12-24T00:03:44.832Z,97985.13
2022-12-24T00:06:20.863Z,98005.75
2022-12-24T00:08:47.913Z,98017.25
2022-12-24T00:11:14.862Z,98000.38
2022-12-24T00:13:41.388Z,98006.75
2022-12-24T00:16:07.872Z,97991.91
2022-12-24T00:18:37.512Z,97989.63
2022-12-24T00:21:08.167Z,97971.38
2022-12-24T00:23:34.731Z,97963.34
2022-12-24T00:26:01.272Z,97986.16
2022-12-24T00:28:30.980Z,97987.38
2022-12-24T00:31:07.026Z,97993.97
2022-12-24T00:33:33.548Z,97970.00
2022-12-24T00:36:00.109Z,97998.34
2022-12-24T00:38:27.914Z,97989.09
2022-12-24T00:41:02.316Z,98003.09
2022-12-24T00:43:32.334Z,98017.72
2022-12-24T00:46:00.783Z,98019.09
2022-12-24T00:48:29.683Z,97994.44
2022-12-24T00:50:56.234Z,98024.78
2022-12-24T00:53:22.852Z,98020.03
2022-12-24T00:55:49.336Z,98023.22
2022-12-24T00:58:15.991Z,98027.63
2022-12-24T01:00:42.494Z,98007.06
2022-12-24T01:03:09.112Z,98002.69
2022-12-24T01:05:35.769Z,98003.97
2022-12-24T01:08:02.284Z,98010.41
2022-12-24T01:10:31.158Z,98027.63
2022-12-24T01:12:57.665Z,98036.44
2022-12-24T01:15:24.206Z,98038.09
2022-12-24T01:17:50.761Z,98020.56
2022-12-24T01:20:18.116Z,98031.50
2022-12-24T01:22:44.774Z,98003.16
2022-12-24T01:25:11.724Z,98035.38
2022-12-24T01:27:38.664Z,98031.47
2022-12-24T01:30:07.353Z,98040.09
2022-12-24T01:32:33.905Z,98016.25
2022-12-24T01:35:00.681Z,98045.59
2022-12-24T01:37:27.172Z,98037.16
2022-12-24T01:40:13.673Z,98017.53
2022-12-24T01:43:06.975Z,98046.06
2022-12-24T01:45:48.295Z,98030.56
2022-12-24T01:48:35.841Z,98037.28
2022-12-24T01:51:27.326Z,98044.66
2022-12-24T01:54:06.289Z,98035.78
2022-12-24T01:56:40.169Z,98029.75
2022-12-24T01:59:10.526Z,98038.56
2022-12-24T02:01:37.615Z,98011.47
2022-12-24T02:04:13.423Z,98031.47
2022-12-24T02:06:39.936Z,98025.16
2022-12-24T02:09:07.265Z,98032.19
2022-12-24T02:11:41.265Z,98023.03
2022-12-24T02:14:08.128Z,98045.31
2022-12-24T02:16:53.486Z,98044.03
2022-12-24T02:19:35.224Z,98048.69
2022-12-24T02:22:17.375Z,98040.25
2022-12-24T02:25:02.155Z,98047.56
2022-12-24T02:28:07.560Z,98042.63
2022-12-24T02:30:43.693Z,98036.69
2022-12-24T02:33:42.225Z,98037.13
2022-12-24T02:36:16.901Z,98010.94
2022-12-24T02:38:58.953Z,98023.56
2022-12-24T02:41:50.116Z,98018.09
2022-12-24T02:44:19.152Z,98023.75
2022-12-24T02:46:47.725Z,98003.56
2022-12-24T02:49:14.346Z,98026.88
2022-12-24T02:51:40.874Z,98027.91
2022-12-24T02:54:07.823Z,98017.41
2022-12-24T02:57:03.481Z,98025.47
2022-12-24T02:59:51.193Z,98031.91
2022-12-24T03:02:53.044Z,98026.47
2022-12-24T03:05:28.172Z,98031.63
2022-12-24T03:08:28.029Z,98012.66
2022-12-24T03:11:02.639Z,98008.13
2022-12-24T03:13:29.760Z,98014.59
2022-12-24T03:15:56.391Z,98025.94
2022-12-24T03:18:26.320Z,98026.31
2022-12-24T03:21:26.581Z,98014.28
2022-12-24T03:23:54.510Z,98014.47
2022-12-24T03:26:21.735Z,98015.41
2022-12-24T03:28:48.974Z,98014.38
2022-12-24T03:31:16.712Z,98026.97
2022-12-24T03:33:43.241Z,98012.56
2022-12-24T03:36:10.255Z,98003.84
2022-12-24T03:38:39.364Z,98030.81
2022-12-24T03:41:06.338Z,98029.91
2022-12-24T03:43:33.427Z,98011.75
2022-12-24T03:46:06.330Z,98009.56
2022-12-24T03:48:35.246Z,98015.88
2022-12-24T03:51:02.395Z,97997.16
2022-12-24T03:53:29.000Z,97976.56
2022-12-24T03:55:55.586Z,98013.31
2022-12-24T03:58:22.082Z,98014.97
2022-12-24T04:00:48.611Z,98009.53
2022-12-24T04:03:15.270Z,97983.88
2022-12-24T04:05:41.918Z,98000.94
2022-12-24T04:08:08.400Z,98004.13
2022-12-24T04:10:34.929Z,97973.72
2022-12-24T04:13:01.454Z,98001.84
2022-12-24T04:15:27.940Z,98018.44
2022-12-24T04:17:54.453Z,98008.00
2022-12-24T04:20:20.956Z,98011.66
2022-12-24T04:22:47.487Z,98021.00
2022-12-24T04:25:14.088Z,98044.84
2022-12-24T04:27:43.413Z,98039.81
2022-12-24T04:30:13.330Z,98035.13
2022-12-24T04:32:39.905Z,98029.88
2022-12-24T04:35:06.743Z,98033.06
2022-12-24T04:37:34.516Z,98031.38
2022-12-24T04:40:00.993Z,98034.25
2022-12-24T04:42:27.549Z,98044.97
2022-12-24T04:44:54.051Z,98054.31
2022-12-24T04:47:20.528Z,98052.66
2022-12-24T04:49:47.039Z,98057.78
2022-12-24T04:52:13.580Z,98064.09
2022-12-24T04:54:40.100Z,98055.13
2022-12-24T04:57:06.622Z,98050.09
2022-12-24T04:59:33.111Z,98062.03
2022-12-24T05:01:59.819Z,98067.06
2022-12-24T05:04:26.413Z,98074.84
2022-12-24T05:06:52.912Z,98079.47
2022-12-24T05:09:19.415Z,98073.22
2022-12-24T05:11:45.898Z,98075.50
2022-12-24T05:14:15.685Z,98052.06
2022-12-24T05:16:43.972Z,98067.13
2022-12-24T05:19:10.517Z,98088.81
2022-12-24T05:21:37.113Z,98107.34
2022-12-24T05:24:22.895Z,98104.25
2022-12-24T05:26:54.632Z,98097.19
2022-12-24T05:29:21.496Z,98091.41
2022-12-24T05:31:48.140Z,98093.13
2022-12-24T05:34:16.000Z,98091.50
2022-12-24T05:36:44.552Z,98077.88
2022-12-24T05:39:18.384Z,98067.25
2022-12-24T05:41:47.905Z,98060.22
2022-12-24T05:44:16.205Z,98070.53
2022-12-24T05:46:46.038Z,98072.91
2022-12-24T05:49:12.858Z,98067.75
2022-12-24T05:51:40.465Z,98051.34
2022-12-24T05:54:07.697Z,98078.66
2022-12-24T05:56:34.251Z,98070.53
2022-12-24T05:59:00.781Z,98069.38
2022-12-24T06:01:27.998Z,98073.50
2022-12-24T06:03:54.571Z,98073.97
2022-12-24T06:06:24.530Z,98073.38
2022-12-24T06:08:52.630Z,98075.03
2022-12-24T06:11:22.459Z,98071.44
2022-12-24T06:13:48.995Z,98078.25
2022-12-24T06:16:18.477Z,98057.94
2022-12-24T06:18:47.929Z,98073.78
2022-12-24T06:21:17.454Z,98074.97
2022-12-24T06:23:45.033Z,98056.53
2022-12-24T06:26:20.220Z,98065.66
2022-12-24T06:28:47.740Z,98063.47
2022-12-24T06:31:16.714Z,98054.59
2022-12-24T06:33:43.822Z,98061.44
2022-12-24T06:36:17.439Z,98054.00
2022-12-24T06:38:45.684Z,98054.00
2022-12-24T06:41:12.228Z,98053.19
2022-12-24T06:43:38.837Z,98037.94
2022-12-24T06:46:05.728Z,98030.31
2022-12-24T06:48:32.324Z,98019.06
2022-12-24T06:51:01.385Z,98041.41
2022-12-24T06:53:27.901Z,98044.69
2022-12-24T06:56:01.723Z,98054.34
2022-12-24T06:58:28.217Z,98065.94
2022-12-24T07:00:54.722Z,98056.19
2022-12-24T07:03:21.230Z,98053.88
2022-12-24T07:05:51.043Z,98034.34
2022-12-24T07:08:20.823Z,98048.59
2022-12-24T07:10:54.348Z,98046.91
2022-12-24T07:13:21.576Z,98031.16
2022-12-24T07:16:02.116Z,98046.47
2022-12-24T07:18:29.183Z,98063.50
2022-12-24T07:20:55.805Z,98060.75
2022-12-24T07:23:22.821Z,98077.38
2022-12-24T07:25:49.373Z,98059.78
2022-12-24T07:28:17.402Z,98036.41
2022-12-24T07:30:44.162Z,98052.09
2022-12-24T07:33:10.654Z,98036.16
2022-12-24T07:35:37.163Z,98044.25
2022-12-24T07:38:03.689Z,98047.44
2022-12-24T07:40:30.239Z,98043.72
2022-12-24T07:42:56.786Z,98054.72
2022-12-24T07:45:23.311Z,98058.22
2022-12-24T07:47:49.835Z,98053.72
2022-12-24T07:50:18.462Z,98038.59
2022-12-24T07:52:45.013Z,98022.66
2022-12-24T07:55:11.535Z,98042.03
2022-12-24T07:57:38.102Z,98057.94
2022-12-24T08:00:05.144Z,98044.91
2022-12-24T08:02:31.819Z,98037.34
2022-12-24T08:04:58.480Z,98048.25
2022-12-24T08:07:25.019Z,98063.16
2022-12-24T08:09:51.510Z,98060.88
2022-12-24T08:12:18.626Z,98032.06
2022-12-24T08:14:45.127Z,98047.47
2022-12-24T08:17:11.674Z,98065.59
2022-12-24T08:19:38.213Z,98073.56
2022-12-24T08:22:04.711Z,98074.03
2022-12-24T08:24:31.275Z,98070.72
2022-12-24T08:26:57.774Z,98076.31
2022-12-24T08:29:24.282Z,98053.59
2022-12-24T08:31:50.929Z,98067.13
2022-12-24T08:34:20.316Z,98038.31
2022-12-24T08:36:49.956Z,98076.75
2022-12-24T08:39:27.209Z,98072.91
2022-12-24T08:41:53.715Z,98055.31
2022-12-24T08:44:20.358Z,98050.59
2022-12-24T08:46:49.688Z,98036.91
2022-12-24T08:49:18.703Z,98025.66
2022-12-24T08:51:45.228Z,98043.38
2022-12-24T08:54:11.724Z,98044.97
2022-12-24T08:56:38.618Z,98032.97
2022-12-24T08:59:05.288Z,98045.38
2022-12-24T09:01:32.049Z,98025.16
2022-12-24T09:03:58.632Z,98034.59
2022-12-24T09:06:25.148Z,98010.66
2022-12-24T09:08:51.658Z,98026.63
2022-12-24T09:11:20.230Z,98031.38
2022-12-24T09:13:49.982Z,98037.53
2022-12-24T09:16:20.966Z,98041.56
2022-12-24T09:18:50.657Z,98042.03
2022-12-24T09:21:20.364Z,98055.53
2022-12-24T09:23:49.977Z,98048.09
2022-12-24T09:26:26.341Z,98050.31
2022-12-24T09:28:53.812Z,98048.00
2022-12-24T09:31:21.556Z,98063.19
2022-12-24T09:33:51.700Z,98057.03
2022-12-24T09:36:22.536Z,98041.69
2022-12-24T09:38:49.181Z,98010.03
2022-12-24T09:41:48.332Z,98022.88
2022-12-24T09:44:25.451Z,98064.47
2022-12-24T09:46:53.712Z,98056.06
2022-12-24T09:49:31.108Z,98051.47
2022-12-24T09:52:02.775Z,98052.38
2022-12-24T09:54:34.772Z,98057.31
2022-12-24T09:57:07.563Z,98058.34
2022-12-24T09:59:45.400Z,98049.94
2022-12-24T10:02:18.711Z,98058.88
2022-12-24T10:04:47.865Z,98057.03
2022-12-24T10:07:57.800Z,98051.78
2022-12-24T10:10:48.589Z,98065.47
2022-12-24T10:13:39.235Z,98066.94
2022-12-24T10:16:50.069Z,98073.38
2022-12-24T10:19:40.895Z,98070.25
2022-12-24T10:22:22.701Z,98082.09
2022-12-24T10:25:29.780Z,98055.00
2022-12-24T10:27:59.698Z,98072.56
2022-12-24T10:30:26.652Z,98064.47
2022-12-24T10:32:56.791Z,98058.06
2022-12-24T10:35:32.313Z,98032.03
2022-12-24T10:37:58.889Z,98049.03
2022-12-24T10:40:40.398Z,98046.75
2022-12-24T10:43:28.482Z,98029.50
2022-12-24T10:46:02.137Z,98055.56
2022-12-24T10:48:58.205Z,98051.19
2022-12-24T10:51:36.940Z,98042.56
2022-12-24T10:54:07.857Z,98031.66
2022-12-24T10:56:44.019Z,98056.34
2022-12-24T10:59:33.709Z,98034.19
2022-12-24T11:02:01.749Z,98023.03
2022-12-24T11:04:31.599Z,98048.75
2022-12-24T11:07:04.233Z,98031.09
2022-12-24T11:09:32.314Z,98035.97
2022-12-24T11:12:08.464Z,98035.41
2022-12-24T11:14:41.160Z,97985.28
2022-12-24T11:17:19.169Z,98022.31
2022-12-24T11:19:51.663Z,98039.47
2022-12-24T11:22:24.433Z,98033.69
2022-12-24T11:25:25.407Z,98021.31
2022-12-24T11:27:52.416Z,98019.84
2022-12-24T11:30:26.783Z,98022.69
2022-12-24T11:33:02.260Z,98027.63
2022-12-24T11:35:32.391Z,98015.47
2022-12-24T11:38:01.910Z,98022.53
2022-12-24T11:40:36.730Z,98025.44
2022-12-24T11:43:10.965Z,98023.72
2022-12-24T11:45:53.631Z,97993.53
2022-12-24T11:48:50.790Z,98028.44
2022-12-24T11:51:26.030Z,98027.44
2022-12-24T11:54:14.450Z,98016.34
2022-12-24T11:56:45.378Z,98023.13
2022-12-24T11:59:32.147Z,98022.88
2022-12-24T12:02:11.194Z,98021.22
2022-12-24T12:04:40.822Z,98017.72
2022-12-24T12:07:30.476Z,98017.81
2022-12-24T12:10:05.192Z,98007.25
2022-12-24T12:12:40.479Z,97998.81
2022-12-24T12:15:15.230Z,97990.63
2022-12-24T12:18:01.377Z,97996.28
2022-12-24T12:20:42.810Z,97991.56
2022-12-24T12:23:27.881Z,98008.94
2022-12-24T12:25:59.166Z,98002.03
2022-12-24T12:28:34.232Z,97997.16
2022-12-24T12:31:15.785Z,98000.66
2022-12-24T12:33:56.868Z,97983.78
2022-12-24T12:36:40.468Z,97993.69
2022-12-24T12:39:12.276Z,97978.53
2022-12-24T12:41:56.782Z,97977.00
2022-12-24T12:45:01.133Z,97966.81
2022-12-24T12:47:55.373Z,97973.63
2022-12-24T12:50:40.703Z,97976.34
2022-12-24T12:53:28.360Z,97976.81
2022-12-24T12:56:28.220Z,97971.53
2022-12-24T12:59:08.290Z,97942.44
2022-12-24T13:01:35.112Z,97966.38
2022-12-24T13:04:35.872Z,97963.00
2022-12-24T13:07:24.270Z,97965.22
2022-12-24T13:10:13.823Z,97964.56
2022-12-24T13:12:55.168Z,97960.06
2022-12-24T13:15:30.580Z,97958.41
2022-12-24T13:18:37.737Z,97959.75
2022-12-24T13:21:04.591Z,97950.81
2022-12-24T13:23:31.329Z,97954.75
2022-12-24T13:25:59.301Z,97923.28
2022-12-24T13:28:25.772Z,97953.38
2022-12-24T13:31:01.343Z,97953.81
2022-12-24T13:33:34.055Z,97948.09
2022-12-24T13:36:16.630Z,97942.41
2022-12-24T13:38:49.891Z,97930.97
2022-12-24T13:41:41.812Z,97934.81
2022-12-24T13:44:13.535Z,97930.81
2022-12-24T13:46:49.689Z,97937.91
2022-12-24T13:49:36.233Z,97924.66
2022-12-24T13:52:07.383Z,97909.34
2022-12-24T13:54:35.561Z,97905.47
2022-12-24T13:57:02.180Z,97932.63
2022-12-24T13:59:38.842Z,97923.81
2022-12-24T14:02:17.311Z,97906.34
2022-12-24T14:04:44.296Z,97924.13
2022-12-24T14:07:11.661Z,97890.06
2022-12-24T14:09:38.326Z,97902.09
2022-12-24T14:12:04.796Z,97909.56
2022-12-24T14:14:35.003Z,97903.38
2022-12-24T14:17:06.807Z,97921.19
2022-12-24T14:19:40.828Z,97911.13
2022-12-24T14:22:25.591Z,97918.09
2022-12-24T14:24:57.965Z,97920.31
2022-12-24T14:27:51.625Z,97920.25
2022-12-24T14:30:29.793Z,97923.88
2022-12-24T14:32:56.960Z,97913.75
2022-12-24T14:35:25.355Z,97942.09
2022-12-24T14:38:04.077Z,97935.63
2022-12-24T14:40:53.486Z,97931.44
2022-12-24T14:43:35.965Z,97925.41
2022-12-24T14:46:21.640Z,97913.72
2022-12-24T14:48:58.941Z,97924.97
2022-12-24T14:51:39.373Z,97922.94
2022-12-24T14:54:17.761Z,97919.88
2022-12-24T14:56:44.474Z,97911.50
2022-12-24T14:59:21.218Z,97904.63
2022-12-24T15:01:47.936Z,97890.94
2022-12-24T15:04:16.391Z,97910.44
2022-12-24T15:06:49.987Z,97908.00
2022-12-24T15:09:27.434Z,97905.72
2022-12-24T15:11:57.095Z,97875.59
2022-12-24T15:14:26.597Z,97879.97
2022-12-24T15:17:01.948Z,97915.03
2022-12-24T15:19:35.903Z,97908.81
2022-12-24T15:22:04.684Z,97862.25
2022-12-24T15:24:36.745Z,97903.66
2022-12-24T15:27:15.351Z,97905.50
2022-12-24T15:29:46.954Z,97922.28
2022-12-24T15:32:15.326Z,97920.84
2022-12-24T15:34:55.824Z,97863.97
2022-12-24T15:37:27.184Z,97926.78
2022-12-24T15:40:10.710Z,97906.88
2022-12-24T15:42:42.446Z,97905.69
2022-12-24T15:45:28.380Z,97923.22
2022-12-24T15:48:10.513Z,97922.44
2022-12-24T15:50:45.966Z,97936.47
2022-12-24T15:53:22.218Z,97933.09
2022-12-24T15:56:09.498Z,97938.59
2022-12-24T15:58:44.569Z,97941.97
2022-12-24T16:01:14.307Z,97943.66
2022-12-24T16:03:54.529Z,97942.63
2022-12-24T16:06:23.271Z,97951.63
2022-12-24T16:08:52.739Z,97941.16
2022-12-24T16:11:36.427Z,97931.34
2022-12-24T16:14:13.256Z,97922.00
2022-12-24T16:16:45.709Z,97947.91
2022-12-24T16:19:23.428Z,97942.44
2022-12-24T16:21:55.878Z,97931.34
2022-12-24T16:24:30.483Z,97939.31
2022-12-24T16:26:57.900Z,97956.19
2022-12-24T16:29:24.682Z,97959.00
2022-12-24T16:31:56.118Z,97961.41
2022-12-24T16:34:26.877Z,97973.34
2022-12-24T16:36:54.027Z,97966.81
2022-12-24T16:39:30.199Z,97942.88
2022-12-24T16:42:17.979Z,97934.66
2022-12-24T16:44:45.003Z,97964.59
2022-12-24T16:47:22.962Z,97948.94
2022-12-24T16:49:53.374Z,97925.38
2022-12-24T16:52:26.346Z,97933.81
2022-12-24T16:54:53.107Z,97957.94
2022-12-24T16:57:23.852Z,97961.03
2022-12-24T16:59:53.822Z,97946.84
2022-12-24T17:02:23.484Z,97957.84
2022-12-24T17:04:53.155Z,97940.16
2022-12-24T17:07:23.626Z,97941.88
2022-12-24T17:09:53.000Z,97896.78
2022-12-24T17:12:22.801Z,97933.19
2022-12-24T17:14:52.338Z,97910.63
2022-12-24T17:17:24.245Z,97930.94
2022-12-24T17:19:54.754Z,97942.50
2022-12-24T17:22:27.251Z,97934.06
2022-12-24T17:24:55.277Z,97945.31
2022-12-24T17:27:22.058Z,97935.22
2022-12-24T17:29:51.505Z,97956.34
2022-12-24T17:32:19.591Z,97931.94
2022-12-24T17:34:46.254Z,97973.38
2022-12-24T17:37:12.933Z,97955.88
2022-12-24T17:39:39.858Z,97921.28
2022-12-24T17:42:11.270Z,97944.66
2022-12-24T17:44:43.787Z,97945.97
2022-12-24T17:47:10.976Z,97946.19
2022-12-24T17:49:37.666Z,97941.06
2022-12-24T17:52:04.849Z,97970.59
2022-12-24T17:54:31.550Z,97967.47
2022-12-24T17:56:58.797Z,97966.59
2022-12-24T17:59:25.575Z,97970.06
2022-12-24T18:01:55.470Z,97935.56
2022-12-24T18:04:22.093Z,97942.53
2022-12-24T18:06:53.885Z,97916.50
2022-12-24T18:09:26.201Z,97970.13
2022-12-24T18:11:54.918Z,97947.00
2022-12-24T18:14:24.185Z,97968.50
2022-12-24T18:16:53.808Z,97970.69
2022-12-24T18:19:23.484Z,97933.00
2022-12-24T18:22:21.024Z,97916.50
2022-12-24T18:25:56.812Z,97917.63
2022-12-24T18:28:24.347Z,97915.16
2022-12-24T18:31:03.872Z,97950.41
2022-12-24T18:33:45.532Z,97959.13
2022-12-24T18:36:12.400Z,97967.31
2022-12-24T18:38:40.350Z,97970.44
2022-12-24T18:41:10.025Z,97924.66
2022-12-24T18:43:43.501Z,97916.63
2022-12-24T18:46:18.027Z,97962.38
2022-12-24T18:48:58.715Z,97976.66
2022-12-24T18:52:04.798Z,97919.53
2022-12-24T18:54:31.376Z,97962.84
2022-12-24T18:56:57.906Z,97944.78
2022-12-24T18:59:24.503Z,97959.81
2022-12-24T19:01:51.997Z,97967.59
2022-12-24T19:04:22.023Z,97966.75
2022-12-24T19:06:53.398Z,97969.59
2022-12-24T19:09:23.049Z,97972.16
2022-12-24T19:11:52.230Z,97975.00
2022-12-24T19:14:24.449Z,97987.56
2022-12-24T19:16:54.069Z,97984.75
2022-12-24T19:19:57.152Z,97951.03
2022-12-24T19:22:53.830Z,97973.34
2022-12-24T19:25:55.101Z,97982.97
2022-12-24T19:28:26.054Z,97959.50
2022-12-24T19:30:53.080Z,97936.97
2022-12-24T19:33:23.786Z,97992.94
2022-12-24T19:35:53.200Z,97975.38
2022-12-24T19:38:31.087Z,97960.72
2022-12-24T19:40:57.662Z,97976.06
2022-12-24T19:46:14.258Z,97952.22
2022-12-24T19:48:47.801Z,97948.09
2022-12-24T19:51:14.299Z,97949.00
2022-12-24T19:53:40.867Z,97974.41
2022-12-24T19:56:10.441Z,97975.75
2022-12-24T19:58:55.903Z,97988.81
2022-12-24T20:01:38.288Z,97948.72
2022-12-24T20:04:05.184Z,97979.03
2022-12-24T20:06:34.247Z,97992.84
2022-12-24T20:09:06.288Z,97996.44
2022-12-24T20:11:33.671Z,98001.56
2022-12-24T20:14:02.413Z,98001.78
2022-12-24T20:16:29.777Z,98001.63
2022-12-24T20:18:59.111Z,98002.50
2022-12-24T20:21:26.626Z,98005.53
2022-12-24T20:23:53.627Z,97993.03
2022-12-24T20:26:26.162Z,97997.47
2022-12-24T20:28:53.138Z,97959.94
2022-12-24T20:31:23.669Z,97997.41
2022-12-24T20:33:52.692Z,98005.91
2022-12-24T20:36:24.490Z,97991.22
2022-12-24T20:38:54.435Z,98005.09
2022-12-24T20:41:25.134Z,98017.84
2022-12-24T20:43:51.930Z,98008.75
2022-12-24T20:46:23.287Z,97985.75
2022-12-24T20:48:53.826Z,98014.94
2022-12-24T20:51:25.985Z,98018.06
2022-12-24T20:53:55.241Z,98010.03
2022-12-24T20:56:22.300Z,98002.88
2022-12-24T20:58:49.449Z,98022.31
2022-12-24T21:01:24.251Z,98005.81
2022-12-24T21:03:53.471Z,98005.59
2022-12-24T21:06:24.611Z,98007.00
2022-12-24T21:08:54.579Z,97994.81
2022-12-24T21:11:42.359Z,97995.63
2022-12-24T21:14:09.410Z,98005.25
2022-12-24T21:16:37.118Z,98000.75
2022-12-24T21:19:04.607Z,97977.38
2022-12-24T21:21:31.476Z,98002.69
2022-12-24T21:24:01.421Z,97966.03
2022-12-24T21:26:30.070Z,98003.09
2022-12-24T21:28:56.773Z,97996.94
2022-12-24T21:31:23.427Z,98010.88
2022-12-24T21:33:55.276Z,97964.41
2022-12-24T21:36:26.971Z,97942.75
2022-12-24T21:38:56.856Z,98004.56
2022-12-24T21:41:23.787Z,97992.47
2022-12-24T21:43:53.150Z,97989.28
2022-12-24T21:46:25.243Z,97995.88
2022-12-24T21:49:27.733Z,98000.38
2022-12-24T21:51:54.240Z,97981.84
2022-12-24T21:54:30.551Z,97962.84
2022-12-24T21:57:25.030Z,97971.94
2022-12-24T21:59:54.303Z,97966.84
2022-12-24T22:02:28.587Z,97981.28
2022-12-24T22:04:55.379Z,97982.91
2022-12-24T22:07:46.291Z,97973.03
2022-12-24T22:10:32.767Z,97987.25
2022-12-24T22:13:00.814Z,97985.63
2022-12-24T22:15:27.450Z,97979.03
2022-12-24T22:17:53.945Z,97957.69
2022-12-24T22:20:20.601Z,97960.22
2022-12-24T22:22:48.892Z,97965.19
2022-12-24T22:25:15.785Z,97974.19
2022-12-24T22:27:42.311Z,97980.84
2022-12-24T22:30:09.638Z,97973.56
2022-12-24T22:32:36.310Z,97969.25
2022-12-24T22:35:02.951Z,97967.47
2022-12-24T22:37:29.583Z,97965.81
2022-12-24T22:39:56.291Z,97977.06
2022-12-24T22:42:25.903Z,97951.84
2022-12-24T22:44:55.736Z,97976.72
2022-12-24T22:47:26.423Z,97967.47
2022-12-24T22:49:54.475Z,97964.50
2022-12-24T22:52:20.985Z,97946.66
2022-12-24T22:54:47.491Z,97955.91
2022-12-24T22:57:14.034Z,97983.56
2022-12-24T22:59:40.561Z,97965.50
2022-12-24T23:02:08.094Z,97969.47
2022-12-24T23:04:38.797Z,97957.69
2022-12-24T23:07:07.659Z,97957.25
2022-12-24T23:09:34.400Z,97949.53
2022-12-24T23:12:01.435Z,97960.97
2022-12-24T23:14:46.491Z,97963.31
2022-12-24T23:17:13.243Z,97965.50
2022-12-24T23:19:39.746Z,97963.75
2022-12-24T23:22:06.713Z,97927.56
2022-12-24T23:24:34.887Z,97961.59
2022-12-24T23:27:01.685Z,97950.03
2022-12-24T23:29:29.804Z,97951.00
2022-12-24T23:31:59.903Z,97944.88
2022-12-24T23:34:29.457Z,97944.06
2022-12-24T23:36:59.011Z,97943.09
2022-12-24T23:39:26.633Z,97919.22
2022-12-24T23:41:53.169Z,97909.63
2022-12-24T23:44:19.649Z,97928.16
2022-12-24T23:46:46.209Z,97939.91
2022-12-24T23:49:15.008Z,97938.06
2022-12-24T23:51:41.567Z,97923.41
2022-12-24T23:54:08.196Z,97935.63
2022-12-24T23:56:34.721Z,97923.41
2022-12-24T23:59:02.586Z,97928.88
